createdAt,value
2023-06-24T00:01:47.687Z,100.00
2023-06-24T00:04:34.232Z,100.00
2023-06-24T00:07:21.949Z,100.00
2023-06-24T00:10:10.123Z,100.00
2023-06-24T00:12:56.869Z,100.00
2023-06-24T00:15:44.212Z,100.00
2023-06-24T00:18:30.928Z,100.00
2023-06-24T00:21:18.111Z,100.00
2023-06-24T00:24:06.164Z,100.00
2023-06-24T00:26:54.010Z,100.00
2023-06-24T00:29:39.879Z,100.00
2023-06-24T00:32:26.803Z,100.00
2023-06-24T00:35:13.374Z,100.00
2023-06-24T00:37:59.885Z,100.00
2023-06-24T00:40:47.316Z,100.00
2023-06-24T00:43:35.794Z,100.00
2023-06-24T00:46:21.825Z,100.00
2023-06-24T00:49:08.039Z,100.00
2023-06-24T00:51:53.978Z,100.00
2023-06-24T00:54:40.006Z,100.00
2023-06-24T00:57:26.892Z,100.00
2023-06-24T01:00:18.288Z,100.00
2023-06-24T01:03:05.418Z,100.00
2023-06-24T01:05:53.130Z,100.00
2023-06-24T01:08:39.178Z,100.00
2023-06-24T01:11:25.705Z,100.00
2023-06-24T01:14:11.811Z,100.00
2023-06-24T01:17:03.245Z,100.00
2023-06-24T01:20:08.354Z,100.00
2023-06-24T01:23:38.983Z,100.00
2023-06-24T01:26:57.454Z,100.00
2023-06-24T01:29:55.328Z,100.00
2023-06-24T01:32:46.095Z,100.00
2023-06-24T01:35:35.217Z,100.00
2023-06-24T01:38:24.190Z,100.00
2023-06-24T01:41:11.960Z,100.00
2023-06-24T01:43:58.806Z,100.00
2023-06-24T01:46:46.621Z,100.00
2023-06-24T01:49:35.102Z,100.00
2023-06-24T01:52:23.774Z,100.00
2023-06-24T01:55:11.978Z,100.00
2023-06-24T01:57:59.077Z,100.00
2023-06-24T02:00:45.475Z,100.00
2023-06-24T02:03:32.924Z,100.00
2023-06-24T02:06:21.427Z,100.00
2023-06-24T02:09:07.873Z,100.00
2023-06-24T02:11:54.878Z,100.00
2023-06-24T02:14:41.841Z,100.00
2023-06-24T02:17:30.782Z,100.00
2023-06-24T02:20:18.403Z,100.00
2023-06-24T02:23:06.053Z,100.00
2023-06-24T02:25:52.629Z,100.00
2023-06-24T02:28:39.413Z,100.00
2023-06-24T02:31:26.071Z,100.00
2023-06-24T02:34:12.173Z,100.00
2023-06-24T02:36:58.263Z,100.00
2023-06-24T02:39:46.882Z,100.00
2023-06-24T02:42:33.031Z,100.00
2023-06-24T02:45:19.781Z,100.00
2023-06-24T02:48:06.719Z,100.00
2023-06-24T02:50:53.130Z,100.00
2023-06-24T02:53:39.395Z,100.00
2023-06-24T02:56:28.941Z,100.00
2023-06-24T02:59:14.908Z,100.00
2023-06-24T03:02:01.467Z,100.00
2023-06-24T03:04:48.267Z,100.00
2023-06-24T03:07:35.843Z,100.00
2023-06-24T03:10:23.578Z,100.00
2023-06-24T03:13:11.514Z,100.00
2023-06-24T03:16:04.980Z,100.00
2023-06-24T03:18:57.762Z,100.00
2023-06-24T03:21:43.942Z,100.00
2023-06-24T03:24:35.481Z,100.00
2023-06-24T03:27:23.055Z,100.00
2023-06-24T03:30:16.054Z,100.00
2023-06-24T03:33:04.460Z,100.00
2023-06-24T03:35:50.587Z,100.00
2023-06-24T03:38:40.533Z,100.00
2023-06-24T03:41:27.643Z,100.00
2023-06-24T03:44:13.792Z,100.00
2023-06-24T03:47:02.228Z,100.00
2023-06-24T03:49:48.397Z,100.00
2023-06-24T03:52:35.120Z,100.00
2023-06-24T03:55:21.207Z,100.00
2023-06-24T03:58:07.651Z,100.00
2023-06-24T04:00:56.763Z,100.00
2023-06-24T04:03:44.327Z,100.00
2023-06-24T04:06:30.363Z,100.00
2023-06-24T04:09:16.330Z,100.00
2023-06-24T04:12:02.212Z,100.00
2023-06-24T04:14:53.569Z,100.00
2023-06-24T04:17:39.670Z,100.00
2023-06-24T04:20:27.301Z,100.00
2023-06-24T04:23:15.187Z,100.00
2023-06-24T04:26:01.316Z,100.00
2023-06-24T04:28:47.597Z,100.00
2023-06-24T04:31:33.832Z,100.00
2023-06-24T04:34:19.912Z,100.00
2023-06-24T04:37:07.671Z,100.00
2023-06-24T04:39:53.954Z,100.00
2023-06-24T04:42:39.909Z,100.00
2023-06-24T04:45:26.221Z,100.00
2023-06-24T04:48:12.136Z,100.00
2023-06-24T04:50:59.180Z,100.00
2023-06-24T04:53:46.484Z,100.00
2023-06-24T04:56:32.350Z,100.00
2023-06-24T04:59:18.313Z,100.00
2023-06-24T05:02:04.499Z,100.00
2023-06-24T05:04:50.672Z,100.00
2023-06-24T05:07:37.222Z,100.00
2023-06-24T05:10:24.761Z,100.00
2023-06-24T05:13:10.652Z,100.00
2023-06-24T05:15:56.657Z,100.00
2023-06-24T05:18:42.408Z,100.00
2023-06-24T05:21:28.383Z,100.00
2023-06-24T05:24:14.362Z,100.00
2023-06-24T05:27:05.998Z,100.00
2023-06-24T05:29:51.844Z,100.00
2023-06-24T05:32:37.892Z,100.00
2023-06-24T05:35:23.829Z,100.00
2023-06-24T05:38:09.825Z,100.00
2023-06-24T05:40:55.889Z,100.00
2023-06-24T05:43:44.965Z,100.00
2023-06-24T05:46:31.265Z,100.00
2023-06-24T05:49:17.666Z,100.00
2023-06-24T05:52:03.711Z,100.00
2023-06-24T05:54:49.970Z,100.00
2023-06-24T05:57:35.913Z,100.00
2023-06-24T06:00:23.121Z,100.00
2023-06-24T06:03:10.409Z,100.00
2023-06-24T06:05:56.551Z,100.00
2023-06-24T06:08:42.729Z,100.00
2023-06-24T06:11:28.929Z,100.00
2023-06-24T06:14:14.982Z,100.00
2023-06-24T06:17:02.201Z,100.00
2023-06-24T06:19:51.500Z,100.00
2023-06-24T06:22:39.484Z,100.00
2023-06-24T06:25:25.716Z,100.00
2023-06-24T06:28:11.574Z,100.00
2023-06-24T06:30:58.652Z,100.00
2023-06-24T06:33:46.609Z,100.00
2023-06-24T06:36:32.749Z,100.00
2023-06-24T06:39:18.585Z,100.00
2023-06-24T06:42:04.845Z,100.00
2023-06-24T06:44:50.846Z,100.00
2023-06-24T06:47:36.861Z,100.00
2023-06-24T06:50:24.198Z,100.00
2023-06-24T06:53:10.351Z,100.00
2023-06-24T06:55:56.885Z,100.00
2023-06-24T06:58:43.118Z,100.00
2023-06-24T07:01:29.131Z,100.00
2023-06-24T07:04:15.528Z,100.00
2023-06-24T07:07:03.564Z,100.00
2023-06-24T07:09:49.415Z,100.00
2023-06-24T07:12:35.605Z,100.00
2023-06-24T07:15:21.968Z,100.00
2023-06-24T07:18:08.281Z,100.00
2023-06-24T07:20:55.161Z,100.00
2023-06-24T07:23:42.821Z,100.00
2023-06-24T07:26:31.119Z,100.00
2023-06-24T07:29:17.361Z,100.00
2023-06-24T07:32:03.327Z,100.00
2023-06-24T07:34:49.286Z,100.00
2023-06-24T07:37:36.432Z,100.00
2023-06-24T07:40:23.821Z,100.00
2023-06-24T07:43:09.749Z,100.00
2023-06-24T07:45:55.809Z,100.00
2023-06-24T07:48:41.675Z,100.00
2023-06-24T07:51:27.671Z,100.00
2023-06-24T07:54:13.555Z,100.00
2023-06-24T07:57:01.033Z,100.00
2023-06-24T07:59:47.022Z,100.00
2023-06-24T08:02:33.396Z,100.00
2023-06-24T08:05:21.401Z,100.00
2023-06-24T08:08:07.430Z,100.00
2023-06-24T08:10:53.400Z,100.00
2023-06-24T08:13:40.528Z,100.00
2023-06-24T08:16:26.562Z,100.00
2023-06-24T08:19:12.769Z,100.00
2023-06-24T08:21:58.484Z,100.00
2023-06-24T08:24:44.537Z,100.00
2023-06-24T08:27:30.347Z,100.00
2023-06-24T08:30:17.605Z,100.00
2023-06-24T08:33:03.830Z,100.00
2023-06-24T08:35:50.236Z,100.00
2023-06-24T08:38:36.339Z,100.00
2023-06-24T08:41:22.913Z,100.00
2023-06-24T08:44:08.851Z,100.00
2023-06-24T08:46:56.177Z,100.00
2023-06-24T08:49:48.150Z,100.00
2023-06-24T08:52:37.870Z,100.00
2023-06-24T08:55:25.398Z,100.00
2023-06-24T08:58:11.135Z,100.00
2023-06-24T09:00:57.534Z,100.00
2023-06-24T09:03:45.099Z,100.00
2023-06-24T09:06:31.069Z,100.00
2023-06-24T09:09:20.962Z,100.00
2023-06-24T09:12:15.260Z,100.00
2023-06-24T09:15:02.169Z,100.00
2023-06-24T09:17:48.411Z,100.00
2023-06-24T09:20:40.832Z,100.00
2023-06-24T09:23:30.261Z,100.00
2023-06-24T09:26:16.901Z,100.00
2023-06-24T09:29:02.760Z,100.00
2023-06-24T09:31:50.373Z,100.00
2023-06-24T09:34:36.898Z,100.00
2023-06-24T09:37:24.934Z,100.00
2023-06-24T09:40:11.716Z,100.00
2023-06-24T09:42:58.825Z,100.00
2023-06-24T09:45:44.814Z,100.00
2023-06-24T09:48:31.130Z,100.00
2023-06-24T09:51:17.252Z,100.00
2023-06-24T09:54:06.322Z,100.00
2023-06-24T09:56:54.139Z,100.00
2023-06-24T09:59:40.575Z,100.00
2023-06-24T10:02:27.074Z,100.00
2023-06-24T10:05:14.022Z,100.00
2023-06-24T10:07:59.826Z,100.00
2023-06-24T10:10:47.858Z,100.00
2023-06-24T10:13:34.076Z,100.00
2023-06-24T10:16:20.583Z,100.00
2023-06-24T10:19:07.438Z,100.00
2023-06-24T10:21:55.056Z,100.00
2023-06-24T10:24:43.200Z,100.00
2023-06-24T10:27:34.621Z,100.00
2023-06-24T10:30:21.332Z,100.00
2023-06-24T10:33:12.011Z,100.00
2023-06-24T10:35:58.547Z,100.00
2023-06-24T10:38:44.904Z,100.00
2023-06-24T10:41:31.111Z,100.00
2023-06-24T10:44:19.010Z,100.00
2023-06-24T10:47:05.528Z,100.00
2023-06-24T10:49:52.062Z,100.00
2023-06-24T10:52:39.917Z,100.00
2023-06-24T10:55:27.318Z,100.00
2023-06-24T10:58:15.333Z,100.00
2023-06-24T11:01:11.659Z,100.00
2023-06-24T11:03:57.876Z,100.00
2023-06-24T11:06:44.177Z,100.00
2023-06-24T11:09:30.408Z,100.00
2023-06-24T11:12:16.842Z,100.00
2023-06-24T11:15:04.440Z,100.00
2023-06-24T11:17:53.254Z,100.00
2023-06-24T11:20:40.264Z,100.00
2023-06-24T11:23:27.470Z,100.00
2023-06-24T11:26:13.535Z,100.00
2023-06-24T11:28:59.424Z,100.00
2023-06-24T11:31:46.810Z,100.00
2023-06-24T11:34:34.214Z,99.66
2023-06-24T11:37:20.822Z,98.17
2023-06-24T11:40:08.549Z,100.00
2023-06-24T11:42:54.607Z,100.00
2023-06-24T11:45:40.542Z,100.00
2023-06-24T11:48:29.988Z,100.00
2023-06-24T11:51:17.199Z,95.84
2023-06-24T11:54:04.673Z,100.00
2023-06-24T11:56:52.098Z,100.00
2023-06-24T11:59:37.975Z,100.00
2023-06-24T12:02:23.947Z,100.00
2023-06-24T12:05:10.635Z,100.00
2023-06-24T12:07:59.613Z,97.77
2023-06-24T12:10:46.233Z,95.96
2023-06-24T12:13:32.470Z,100.00
2023-06-24T12:16:18.541Z,100.00
2023-06-24T12:19:04.944Z,96.35
2023-06-24T12:21:50.932Z,95.20
2023-06-24T12:24:38.564Z,91.23
2023-06-24T12:27:25.702Z,96.53
2023-06-24T12:30:12.458Z,88.19
2023-06-24T12:32:58.839Z,100.00
2023-06-24T12:35:45.391Z,100.00
2023-06-24T12:38:31.847Z,97.78
2023-06-24T12:41:19.281Z,100.00
2023-06-24T12:44:05.880Z,100.00
2023-06-24T12:46:51.687Z,88.83
2023-06-24T12:49:37.750Z,95.54
2023-06-24T12:52:23.780Z,100.00
2023-06-24T12:55:10.464Z,91.40
2023-06-24T12:57:58.601Z,95.84
2023-06-24T13:00:44.474Z,99.46
2023-06-24T13:03:30.184Z,100.00
2023-06-24T13:06:16.029Z,87.08
2023-06-24T13:09:02.158Z,87.79
2023-06-24T13:11:49.181Z,90.17
2023-06-24T13:14:36.430Z,87.59
2023-06-24T13:17:22.627Z,89.72
2023-06-24T13:20:09.753Z,100.00
2023-06-24T13:22:56.685Z,88.20
2023-06-24T13:25:42.844Z,87.92
2023-06-24T13:28:29.110Z,95.99
2023-06-24T13:31:17.232Z,82.84
2023-06-24T13:34:04.011Z,91.09
2023-06-24T13:36:50.107Z,84.15
2023-06-24T13:39:36.682Z,87.89
2023-06-24T13:42:22.546Z,80.20
2023-06-24T13:45:08.985Z,88.82
2023-06-24T13:47:56.867Z,86.39
2023-06-24T13:50:43.425Z,96.41
2023-06-24T13:53:29.368Z,100.00
2023-06-24T13:56:15.318Z,92.72
2023-06-24T13:59:01.584Z,97.02
2023-06-24T14:01:48.328Z,90.15
2023-06-24T14:04:35.685Z,88.46
2023-06-24T14:07:21.847Z,100.00
2023-06-24T14:10:08.959Z,100.00
2023-06-24T14:12:55.498Z,100.00
2023-06-24T14:15:42.021Z,100.00
2023-06-24T14:18:28.368Z,100.00
2023-06-24T14:21:15.944Z,100.00
2023-06-24T14:24:14.756Z,100.00
2023-06-24T14:27:02.652Z,100.00
2023-06-24T14:29:49.290Z,100.00
2023-06-24T14:32:35.285Z,100.00
2023-06-24T14:35:21.590Z,100.00
2023-06-24T14:38:09.536Z,100.00
2023-06-24T14:40:57.075Z,100.00
2023-06-24T14:43:43.216Z,100.00
2023-06-24T14:46:29.237Z,100.00
2023-06-24T14:49:15.539Z,100.00
2023-06-24T14:52:01.545Z,100.00
2023-06-24T14:54:49.710Z,100.00
2023-06-24T14:57:37.272Z,100.00
2023-06-24T15:00:23.519Z,100.00
2023-06-24T15:03:09.660Z,100.00
2023-06-24T15:05:55.644Z,100.00
2023-06-24T15:08:41.519Z,100.00
2023-06-24T15:11:28.891Z,100.00
2023-06-24T15:14:15.022Z,100.00
2023-06-24T15:17:01.010Z,100.00
2023-06-24T15:19:46.980Z,100.00
2023-06-24T15:22:33.036Z,100.00
2023-06-24T15:25:19.442Z,100.00
2023-06-24T15:28:06.733Z,100.00
2023-06-24T15:30:53.395Z,100.00
2023-06-24T15:33:39.668Z,100.00
2023-06-24T15:36:27.831Z,100.00
2023-06-24T15:39:13.921Z,100.00
2023-06-24T15:42:00.067Z,100.00
2023-06-24T15:44:48.062Z,100.00
2023-06-24T15:50:20.142Z,100.00
2023-06-24T15:53:06.017Z,100.00
2023-06-24T15:55:52.135Z,100.00
2023-06-24T15:58:38.378Z,100.00
2023-06-24T16:01:25.770Z,100.00
2023-06-24T16:04:11.927Z,100.00
2023-06-24T16:06:57.904Z,100.00
2023-06-24T16:09:44.436Z,100.00
2023-06-24T16:12:30.406Z,100.00
2023-06-24T16:15:16.494Z,100.00
2023-06-24T16:18:03.931Z,100.00
2023-06-24T16:20:49.895Z,100.00
2023-06-24T16:23:36.176Z,100.00
2023-06-24T16:26:22.321Z,100.00
2023-06-24T16:29:08.268Z,100.00
2023-06-24T16:31:54.301Z,100.00
2023-06-24T16:34:42.008Z,100.00
2023-06-24T16:37:28.257Z,100.00
2023-06-24T16:40:14.498Z,100.00
2023-06-24T16:43:00.678Z,100.00
2023-06-24T16:45:47.894Z,100.00
2023-06-24T16:48:34.306Z,100.00
2023-06-24T16:51:21.651Z,100.00
2023-06-24T16:54:08.112Z,100.00
2023-06-24T16:56:54.459Z,100.00
2023-06-24T16:59:40.584Z,100.00
2023-06-24T17:02:27.304Z,100.00
2023-06-24T17:05:14.670Z,100.00
2023-06-24T17:08:02.133Z,100.00
2023-06-24T17:10:48.377Z,100.00
2023-06-24T17:13:34.662Z,100.00
2023-06-24T17:16:20.460Z,100.00
2023-06-24T17:19:07.367Z,100.00
2023-06-24T17:21:53.647Z,100.00
2023-06-24T17:24:40.916Z,100.00
2023-06-24T17:27:26.931Z,100.00
2023-06-24T17:30:13.496Z,100.00
2023-06-24T17:32:59.909Z,100.00
2023-06-24T17:35:45.857Z,100.00
2023-06-24T17:38:31.941Z,100.00
2023-06-24T17:41:20.542Z,100.00
2023-06-24T17:44:06.940Z,100.00
2023-06-24T17:46:53.100Z,100.00
2023-06-24T17:49:38.878Z,100.00
2023-06-24T17:52:25.004Z,100.00
2023-06-24T17:55:11.057Z,100.00
2023-06-24T17:57:58.566Z,100.00
2023-06-24T18:00:44.550Z,100.00
2023-06-24T18:03:30.373Z,100.00
2023-06-24T18:06:16.462Z,100.00
2023-06-24T18:09:02.349Z,100.00
2023-06-24T18:11:48.602Z,100.00
2023-06-24T18:14:36.076Z,100.00
2023-06-24T18:17:22.271Z,100.00
2023-06-24T18:20:09.379Z,100.00
2023-06-24T18:22:55.781Z,100.00
2023-06-24T18:25:41.994Z,100.00
2023-06-24T18:28:27.886Z,100.00
2023-06-24T18:31:15.315Z,100.00
2023-06-24T18:34:01.652Z,100.00
2023-06-24T18:36:48.494Z,100.00
2023-06-24T18:39:34.873Z,100.00
2023-06-24T18:42:20.886Z,100.00
2023-06-24T18:45:07.855Z,100.00
2023-06-24T18:47:56.712Z,100.00
2023-06-24T18:50:42.826Z,100.00
2023-06-24T18:53:30.476Z,100.00
2023-06-24T18:56:18.367Z,100.00
2023-06-24T18:59:04.605Z,100.00
2023-06-24T19:01:50.501Z,100.00
2023-06-24T19:04:39.058Z,100.00
2023-06-24T19:07:26.949Z,100.00
2023-06-24T19:10:13.525Z,100.00
2023-06-24T19:12:59.942Z,100.00
2023-06-24T19:15:46.576Z,100.00
2023-06-24T19:18:32.741Z,100.00
2023-06-24T19:21:20.086Z,100.00
2023-06-24T19:24:06.696Z,100.00
2023-06-24T19:26:52.907Z,100.00
2023-06-24T19:29:38.982Z,100.00
2023-06-24T19:32:25.291Z,100.00
2023-06-24T19:35:11.660Z,100.00
2023-06-24T19:37:58.875Z,100.00
2023-06-24T19:40:45.162Z,100.00
2023-06-24T19:43:31.308Z,100.00
2023-06-24T19:46:28.085Z,100.00
2023-06-24T19:49:18.257Z,100.00
2023-06-24T19:52:04.261Z,100.00
2023-06-24T19:54:52.197Z,100.00
2023-06-24T19:57:40.247Z,100.00
2023-06-24T20:00:26.401Z,100.00
2023-06-24T20:03:12.845Z,100.00
2023-06-24T20:05:58.871Z,100.00
2023-06-24T20:08:45.152Z,100.00
2023-06-24T20:11:32.752Z,100.00
2023-06-24T20:14:19.156Z,100.00
2023-06-24T20:17:05.582Z,100.00
2023-06-24T20:19:51.401Z,100.00
2023-06-24T20:22:37.557Z,100.00
2023-06-24T20:25:23.667Z,100.00
2023-06-24T20:28:12.611Z,100.00
2023-06-24T20:31:03.231Z,100.00
2023-06-24T20:33:49.593Z,100.00
2023-06-24T20:36:35.708Z,100.00
2023-06-24T20:39:22.147Z,100.00
2023-06-24T20:42:09.112Z,100.00
2023-06-24T20:44:56.401Z,100.00
2023-06-24T20:47:42.369Z,100.00
2023-06-24T20:50:28.199Z,100.00
2023-06-24T20:53:14.576Z,100.00
2023-06-24T20:56:00.898Z,100.00
2023-06-24T20:58:47.578Z,100.00
2023-06-24T21:01:35.000Z,100.00
2023-06-24T21:04:21.216Z,100.00
2023-06-24T21:07:07.403Z,100.00
2023-06-24T21:09:53.848Z,100.00
2023-06-24T21:12:56.758Z,100.00
2023-06-24T21:15:44.161Z,100.00
2023-06-24T21:18:31.492Z,100.00
2023-06-24T21:21:18.379Z,100.00
2023-06-24T21:24:04.914Z,100.00
2023-06-24T21:26:51.053Z,100.00
2023-06-24T21:29:36.972Z,100.00
2023-06-24T21:32:22.983Z,100.00
2023-06-24T21:35:11.405Z,100.00
2023-06-24T21:37:57.633Z,100.00
2023-06-24T21:40:43.994Z,100.00
2023-06-24T21:43:30.249Z,100.00
2023-06-24T21:46:16.467Z,100.00
2023-06-24T21:49:03.529Z,100.00
2023-06-24T21:51:53.658Z,100.00
2023-06-24T21:54:39.918Z,100.00
2023-06-24T21:57:25.947Z,100.00
2023-06-24T22:00:19.408Z,100.00
2023-06-24T22:03:05.898Z,100.00
2023-06-24T22:05:53.651Z,100.00
2023-06-24T22:08:41.730Z,100.00
2023-06-24T22:11:27.951Z,100.00
2023-06-24T22:14:13.944Z,100.00
2023-06-24T22:17:00.355Z,100.00
2023-06-24T22:19:46.301Z,100.00
2023-06-24T22:22:32.185Z,100.00
2023-06-24T22:25:19.650Z,100.00
2023-06-24T22:28:05.727Z,100.00
2023-06-24T22:30:51.971Z,100.00
2023-06-24T22:33:38.313Z,100.00
2023-06-24T22:36:24.166Z,100.00
2023-06-24T22:39:10.165Z,100.00
2023-06-24T22:41:57.489Z,100.00
2023-06-24T22:44:43.802Z,100.00
2023-06-24T22:47:29.796Z,100.00
2023-06-24T22:50:15.859Z,100.00
2023-06-24T22:53:01.788Z,100.00
2023-06-24T22:55:47.845Z,100.00
2023-06-24T22:58:35.434Z,100.00
2023-06-24T23:01:21.292Z,100.00
2023-06-24T23:04:08.506Z,100.00
2023-06-24T23:06:56.268Z,100.00
2023-06-24T23:09:42.793Z,100.00
2023-06-24T23:12:29.473Z,100.00
2023-06-24T23:15:17.632Z,100.00
2023-06-24T23:18:04.021Z,100.00
2023-06-24T23:20:50.641Z,100.00
2023-06-24T23:23:38.193Z,100.00
2023-06-24T23:26:27.273Z,100.00
2023-06-24T23:29:14.280Z,100.00
2023-06-24T23:32:01.720Z,100.00
2023-06-24T23:34:48.389Z,100.00
2023-06-24T23:37:35.155Z,100.00
2023-06-24T23:40:22.068Z,100.00
2023-06-24T23:43:08.286Z,100.00
2023-06-24T23:45:54.909Z,100.00
2023-06-24T23:48:42.722Z,100.00
2023-06-24T23:51:28.742Z,100.00
2023-06-24T23:54:14.785Z,100.00
2023-06-24T23:57:00.741Z,100.00
2023-06-24T23:59:46.677Z,100.00
